Time;durP1;ratioP1;P1;durP2;ratioP2;P2;SDS_P1;SDS_P2;PMS_P1;PMS_P2;Temp;Humidity;BMP_temperature;BMP_pressure;BME280_temperature;BME280_humidity;BME280_pressure;Samples;Min_cycle;Max_cycle;Signal;HPM_P1;HPM_P2
2023/05/31 00:02:01;;;;;;;1.95;1.48;;;;;;;14.54;73.78;101962.41;4968502;28;20388;-65
2023/05/31 00:04:27;;;;;;;0.65;0.20;;;;;;;14.46;73.77;101964.91;4968568;28;20181;-64
2023/05/31 00:06:52;;;;;;;0.60;0.60;;;;;;;14.46;73.66;101964.91;4942345;28;20035;-65
2023/05/31 00:09:18;;;;;;;0.35;0.30;;;;;;;14.48;73.66;101966.50;4966522;28;20121;-66
2023/05/31 00:11:43;;;;;;;0.70;0.50;;;;;;;14.43;74.06;101976.47;4977455;28;20042;-65
2023/05/31 00:14:10;;;;;;;0.90;0.68;;;;;;;14.25;74.28;101967.03;4955415;28;20680;-65
2023/05/31 00:16:35;;;;;;;1.65;0.68;;;;;;;14.19;74.78;101971.13;4950858;28;20053;-64
2023/05/31 00:19:01;;;;;;;2.50;1.00;;;;;;;14.17;75.31;101961.75;4965140;28;20072;-65
2023/05/31 00:21:32;;;;;;;2.03;0.90;;;;;;;14.15;75.47;101964.81;4971767;28;20042;-65
2023/05/31 00:23:57;;;;;;;1.73;0.82;;;;;;;14.22;75.39;101969.66;4943898;28;20049;-65
2023/05/31 00:26:23;;;;;;;1.20;0.40;;;;;;;14.26;74.63;101960.50;4956133;28;20038;-66
2023/05/31 00:28:49;;;;;;;0.68;0.68;;;;;;;14.27;74.80;101966.69;4949543;28;20039;-65
2023/05/31 00:31:14;;;;;;;0.50;0.50;;;;;;;14.18;75.48;101972.28;4961786;28;20115;-64
2023/05/31 00:33:43;;;;;;;0.88;0.68;;;;;;;14.15;75.33;101962.13;4954612;28;20050;-67
2023/05/31 00:36:09;;;;;;;1.15;0.60;;;;;;;14.15;75.60;101964.81;4987465;28;20030;-66
2023/05/31 00:38:37;;;;;;;1.33;0.55;;;;;;;14.18;75.60;101963.34;4991288;28;20113;-64
2023/05/31 00:41:03;;;;;;;0.65;0.63;;;;;;;14.14;75.99;101963.25;4995379;28;20040;-64
2023/05/31 00:43:28;;;;;;;1.83;1.10;;;;;;;14.10;75.75;101965.09;4987794;28;20034;-64
2023/05/31 00:45:54;;;;;;;0.93;0.73;;;;;;;14.13;75.97;101967.09;5011682;28;20034;-65
2023/05/31 00:48:20;;;;;;;0.32;0.25;;;;;;;14.13;75.68;101960.91;4987398;28;20042;-65
2023/05/31 00:50:47;;;;;;;2.63;0.95;;;;;;;14.07;76.23;101963.03;5008061;28;20126;-66
2023/05/31 00:53:14;;;;;;;1.15;0.80;;;;;;;13.92;76.72;101963.78;4989825;28;20022;-64
2023/05/31 00:55:40;;;;;;;0.45;0.45;;;;;;;13.93;76.88;101965.38;5025111;28;20171;-65
2023/05/31 00:58:05;;;;;;;1.35;0.43;;;;;;;13.96;76.98;101970.09;4988309;28;20030;-65
2023/05/31 01:00:31;;;;;;;0.57;0.57;;;;;;;14.01;76.07;101964.47;4986387;28;20547;-66
2023/05/31 01:03:01;;;;;;;0.60;0.40;;;;;;;13.98;76.58;101964.34;4999347;28;20088;-64
2023/05/31 01:05:26;;;;;;;1.75;0.80;;;;;;;13.97;76.14;101968.19;4990573;28;20034;-65
2023/05/31 01:07:52;;;;;;;0.60;0.32;;;;;;;13.93;76.58;101973.50;4987830;28;20025;-65
2023/05/31 01:10:20;;;;;;;0.73;0.60;;;;;;;13.86;76.90;101976.00;4985953;28;20026;-65
2023/05/31 01:13:07;;;;;;;1.05;0.40;;;;;;;13.85;76.99;101960.91;4991714;28;20494;-66
2023/05/31 01:16:12;;;;;;;0.73;0.52;;;;;;;13.81;76.64;101962.72;4981852;28;20049;-67
2023/05/31 01:18:54;;;;;;;2.25;0.43;;;;;;;13.72;77.19;101969.41;4944869;28;20047;-65
2023/05/31 01:21:32;;;;;;;1.02;0.30;;;;;;;13.66;77.66;101968.06;5003986;28;20400;-68
2023/05/31 01:24:04;;;;;;;0.50;0.43;;;;;;;13.58;77.91;101967.06;5022252;28;20033;-66
2023/05/31 01:26:46;;;;;;;1.13;0.60;;;;;;;13.62;77.84;101972.59;5026028;28;20477;-64
2023/05/31 01:29:18;;;;;;;4.63;0.70;;;;;;;13.58;77.47;101969.78;5034058;28;20033;-67
2023/05/31 01:31:48;;;;;;;1.05;0.82;;;;;;;13.50;77.12;101976.09;5009348;28;20037;-67
2023/05/31 01:34:13;;;;;;;1.13;0.85;;;;;;;13.58;78.09;101967.06;5027668;28;20056;-66
2023/05/31 01:36:39;;;;;;;0.63;0.20;;;;;;;13.57;78.05;101973.59;5028775;28;20037;-65
2023/05/31 01:39:05;;;;;;;1.60;0.82;;;;;;;13.46;78.35;101980.63;5012007;28;20112;-67
2023/05/31 01:41:35;;;;;;;0.52;0.47;;;;;;;13.34;78.39;101973.31;5032977;28;20034;-65
2023/05/31 01:44:04;;;;;;;2.70;0.40;;;;;;;13.41;78.51;101973.53;5027334;28;20021;-66
2023/05/31 01:46:29;;;;;;;0.15;0.15;;;;;;;13.30;79.48;101971.63;5008801;28;20029;-65
2023/05/31 01:48:55;;;;;;;0.88;0.45;;;;;;;13.28;78.73;101973.88;5039774;28;20111;-67
2023/05/31 01:51:22;;;;;;;0.88;0.88;;;;;;;13.23;78.99;101971.41;5012409;28;20044;-66
2023/05/31 01:53:48;;;;;;;1.30;0.60;;;;;;;13.14;79.38;101968.06;5007097;28;20028;-64
2023/05/31 01:56:14;;;;;;;0.75;0.50;;;;;;;13.15;79.64;101967.69;5016142;28;20064;-67
2023/05/31 01:58:41;;;;;;;1.23;0.73;;;;;;;13.05;79.61;101968.16;5004617;28;20061;-65
2023/05/31 02:01:11;;;;;;;0.57;0.50;;;;;;;13.08;79.76;101964.00;5005777;28;20109;-67
2023/05/31 02:03:40;;;;;;;0.60;0.35;;;;;;;13.04;79.39;101960.38;5024315;28;20116;-66
2023/05/31 02:06:06;;;;;;;1.13;0.45;;;;;;;12.92;79.30;101963.06;5006985;28;20025;-63
2023/05/31 02:08:31;;;;;;;0.98;0.60;;;;;;;12.66;80.64;101958.75;5016886;28;20532;-65
2023/05/31 02:10:59;;;;;;;2.55;0.32;;;;;;;12.76;80.38;101957.53;5010985;28;20025;-66
2023/05/31 02:13:27;;;;;;;0.80;0.50;;;;;;;12.75;79.71;101968.69;5028118;28;20051;-65
2023/05/31 02:15:57;;;;;;;0.52;0.52;;;;;;;12.87;79.00;101968.69;5015088;28;20371;-66
2023/05/31 02:18:26;;;;;;;1.30;0.75;;;;;;;12.88;79.00;101967.56;5034734;28;20064;-67
2023/05/31 02:20:52;;;;;;;2.00;0.70;;;;;;;12.88;78.85;101971.06;5006043;28;20551;-67
2023/05/31 02:23:18;;;;;;;1.38;0.60;;;;;;;12.87;78.67;101968.69;5035296;28;20136;-67
2023/05/31 02:25:48;;;;;;;0.63;0.40;;;;;;;12.73;79.06;101971.72;5027161;28;20549;-66
2023/05/31 02:28:14;;;;;;;0.60;0.60;;;;;;;12.66;79.21;101966.88;5006121;28;20042;-66
2023/05/31 02:30:40;;;;;;;0.73;0.35;;;;;;;12.68;79.19;101974.63;5012989;28;20029;-66
2023/05/31 02:33:08;;;;;;;3.10;0.68;;;;;;;12.40;80.05;101969.09;5004574;28;20022;-66
2023/05/31 02:35:34;;;;;;;0.55;0.38;;;;;;;12.31;80.74;101962.97;5004728;28;20025;-67
2023/05/31 02:37:59;;;;;;;0.55;0.40;;;;;;;12.34;81.01;101962.31;5017919;28;20389;-66
2023/05/31 02:40:28;;;;;;;1.08;0.55;;;;;;;12.19;81.44;101962.94;5015537;28;20482;-65
2023/05/31 02:42:53;;;;;;;1.08;0.70;;;;;;;12.21;81.70;101958.00;5036901;28;20053;-67
2023/05/31 02:45:21;;;;;;;1.48;0.50;;;;;;;12.31;81.22;101957.56;5002461;28;20533;-66
2023/05/31 02:47:47;;;;;;;0.80;0.47;;;;;;;12.44;81.20;101959.19;5035725;28;20498;-66
2023/05/31 02:50:14;;;;;;;0.80;0.73;;;;;;;12.50;80.54;101962.47;4989907;28;20017;-67
2023/05/31 02:52:50;;;;;;;0.75;0.68;;;;;;;12.42;80.33;101958.72;4995423;28;20034;-67
2023/05/31 02:55:39;;;;;;;0.80;0.50;;;;;;;12.42;80.22;101956.03;5020147;28;20033;-66
2023/05/31 02:58:40;;;;;;;0.75;0.75;;;;;;;12.15;81.22;101963.94;5024704;28;20041;-64
2023/05/31 03:01:17;;;;;;;0.82;0.75;;;;;;;12.30;81.62;101956.00;5030660;28;20072;-66
2023/05/31 03:04:09;;;;;;;0.50;0.50;;;;;;;12.34;80.71;101954.19;5013244;28;20025;-68
2023/05/31 03:06:36;;;;;;;0.90;0.60;;;;;;;12.35;81.64;101944.19;5014776;28;20030;-68
2023/05/31 03:09:03;;;;;;;1.63;0.57;;;;;;;12.42;81.62;101953.31;5009640;28;20379;-65
2023/05/31 03:11:29;;;;;;;1.35;0.85;;;;;;;12.51;81.22;101945.91;5023030;28;20493;-66
2023/05/31 03:13:57;;;;;;;0.88;0.75;;;;;;;12.45;81.30;101941.84;5006038;28;20103;-66
2023/05/31 03:16:28;;;;;;;0.40;0.40;;;;;;;12.26;82.25;101940.78;5012686;28;20033;-64
2023/05/31 03:18:54;;;;;;;2.13;0.60;;;;;;;12.38;80.98;101947.00;5012382;28;20040;-65
2023/05/31 03:21:19;;;;;;;0.65;0.60;;;;;;;12.45;81.27;101936.44;5030244;28;20425;-67
2023/05/31 03:23:49;;;;;;;0.82;0.82;;;;;;;12.55;81.03;101936.00;5017416;28;20547;-67
2023/05/31 03:26:15;;;;;;;1.08;0.45;;;;;;;12.51;81.10;101943.19;5012830;28;20033;-66
2023/05/31 03:28:40;;;;;;;0.93;0.55;;;;;;;12.49;81.15;101950.06;5013459;28;20025;-65
2023/05/31 03:31:07;;;;;;;0.93;0.60;;;;;;;12.44;81.93;101942.19;5040008;28;20028;-67
2023/05/31 03:33:32;;;;;;;1.27;0.73;;;;;;;12.34;82.21;101942.59;5028657;28;20037;-67
2023/05/31 03:35:58;;;;;;;0.32;0.32;;;;;;;12.39;81.82;101935.06;5033105;28;20513;-64
2023/05/31 03:38:25;;;;;;;1.20;0.68;;;;;;;12.47;81.68;101941.50;5010474;28;20041;-67
2023/05/31 03:40:53;;;;;;;0.50;0.50;;;;;;;12.45;82.24;101930.22;5017197;28;20041;-66
2023/05/31 03:43:19;;;;;;;1.05;0.57;;;;;;;12.44;83.05;101934.88;5006891;28;20036;-66
2023/05/31 03:45:45;;;;;;;1.80;0.82;;;;;;;12.54;83.13;101931.72;5019396;28;20064;-67
2023/05/31 03:48:11;;;;;;;0.52;0.52;;;;;;;12.51;83.41;101937.81;5008565;28;20041;-67
2023/05/31 03:50:39;;;;;;;1.08;0.80;;;;;;;12.60;83.12;101935.00;5003651;28;20033;-67
2023/05/31 03:53:05;;;;;;;0.63;0.63;;;;;;;12.65;82.42;101934.78;5023443;28;20017;-67
2023/05/31 03:55:31;;;;;;;0.80;0.80;;;;;;;12.68;82.62;101934.09;5048161;28;20091;-67
2023/05/31 03:57:56;;;;;;;0.63;0.50;;;;;;;12.63;83.06;101932.41;5007623;28;20028;-66
2023/05/31 04:00:42;;;;;;;7.18;1.35;;;;;;;12.64;83.56;101933.19;5019483;28;20029;-66
2023/05/31 04:03:07;;;;;;;3.22;0.88;;;;;;;12.68;83.85;101936.78;4950017;28;20043;-64
2023/05/31 04:05:35;;;;;;;0.93;0.63;;;;;;;12.75;83.44;101937.03;4937185;28;20496;-66
2023/05/31 04:08:01;;;;;;;0.70;0.68;;;;;;;12.80;83.64;101930.59;4957177;28;20035;-64
2023/05/31 04:10:29;;;;;;;0.90;0.60;;;;;;;12.88;83.44;101937.81;4961157;28;20038;-65
2023/05/31 04:12:55;;;;;;;0.82;0.68;;;;;;;12.94;83.45;101931.06;4941546;29;20035;-66
2023/05/31 04:15:20;;;;;;;1.42;0.93;;;;;;;12.99;83.45;101930.84;4936009;28;20047;-66
2023/05/31 04:17:46;;;;;;;0.60;0.60;;;;;;;13.13;82.63;101936.69;4943935;28;20031;-66
2023/05/31 04:20:12;;;;;;;1.45;0.50;;;;;;;13.06;83.19;101939.19;4941432;29;20056;-66
2023/05/31 04:22:38;;;;;;;0.50;0.50;;;;;;;13.08;82.87;101945.84;4954276;28;20589;-67
2023/05/31 04:25:05;;;;;;;0.73;0.60;;;;;;;13.09;82.89;101943.91;4962975;28;20038;-66
2023/05/31 04:27:38;;;;;;;0.68;0.57;;;;;;;13.12;83.00;101943.25;4950298;28;20043;-67
2023/05/31 04:30:06;;;;;;;1.80;0.70;;;;;;;13.13;83.40;101950.22;4964955;28;20046;-63
2023/05/31 04:32:34;;;;;;;1.60;0.88;;;;;;;13.14;83.87;101943.72;4956420;28;20039;-66
2023/05/31 04:35:20;;;;;;;2.42;1.13;;;;;;;13.17;83.78;101951.94;4926975;29;20074;-66
2023/05/31 04:37:52;;;;;;;0.88;0.80;;;;;;;13.18;84.31;101950.00;4922498;29;20774;-67
2023/05/31 04:40:20;;;;;;;2.67;1.02;;;;;;;13.24;83.94;101957.53;4955186;28;20070;-66
2023/05/31 04:42:46;;;;;;;5.57;1.27;;;;;;;13.24;84.52;101954.84;4952505;28;20492;-66
2023/05/31 04:45:23;;;;;;;1.00;0.88;;;;;;;13.28;84.67;101957.63;4949013;28;20039;-67
2023/05/31 04:47:51;;;;;;;0.93;0.68;;;;;;;13.31;84.53;101962.38;4984393;28;20077;-64
2023/05/31 04:50:18;;;;;;;1.17;0.68;;;;;;;13.32;85.31;101959.34;4952391;28;20102;-64
2023/05/31 04:52:44;;;;;;;3.65;0.95;;;;;;;13.41;85.23;101959.22;4965845;28;20125;-64
2023/05/31 04:55:11;;;;;;;1.55;0.90;;;;;;;13.49;85.64;101966.44;4968310;28;20038;-65
2023/05/31 04:57:37;;;;;;;0.95;0.80;;;;;;;13.54;85.41;101966.19;4950408;28;20497;-63
2023/05/31 05:00:09;;;;;;;0.80;0.68;;;;;;;13.58;85.30;101956.25;4950264;28;20444;-64
2023/05/31 05:02:43;;;;;;;1.13;0.80;;;;;;;13.68;85.47;101963.91;4946352;28;20054;-63
2023/05/31 05:05:11;;;;;;;1.25;0.98;;;;;;;13.76;85.67;101957.56;4954569;28;20038;-64
2023/05/31 05:07:37;;;;;;;1.48;0.82;;;;;;;13.86;85.58;101959.75;4954848;28;20035;-65
2023/05/31 05:10:03;;;;;;;1.27;1.17;;;;;;;14.09;85.99;101960.78;4967981;28;20082;-63
2023/05/31 05:12:30;;;;;;;2.75;1.45;;;;;;;14.44;86.03;101966.38;4975353;28;20178;-64
2023/05/31 05:14:55;;;;;;;1.65;1.00;;;;;;;14.86;84.76;101956.63;4984689;28;20120;-64
2023/05/31 05:17:20;;;;;;;2.15;1.23;;;;;;;15.23;83.85;101960.56;5007794;28;20040;-65
2023/05/31 05:19:46;;;;;;;1.40;1.00;;;;;;;15.68;83.22;101953.81;5010224;28;20535;-68
2023/05/31 05:22:12;;;;;;;1.45;1.13;;;;;;;16.07;81.85;101958.88;5029906;23;20033;-65
2023/05/31 05:24:38;;;;;;;2.25;1.10;;;;;;;16.43;80.05;101968.47;5026637;28;20033;-65
2023/05/31 05:27:05;;;;;;;1.67;1.33;;;;;;;16.68;77.73;101974.38;5027742;28;20040;-65
2023/05/31 05:29:31;;;;;;;3.22;1.13;;;;;;;16.99;76.61;101963.22;5032773;28;20035;-65
2023/05/31 05:31:56;;;;;;;1.33;0.90;;;;;;;17.29;74.27;101964.03;5024673;28;20032;-65
2023/05/31 05:34:22;;;;;;;1.30;0.90;;;;;;;17.52;74.35;101966.72;5019784;28;20052;-64
2023/05/31 05:36:48;;;;;;;1.00;0.77;;;;;;;17.73;73.59;101969.75;5020503;28;20032;-64
2023/05/31 05:39:14;;;;;;;2.10;1.02;;;;;;;17.94;72.65;101970.75;5047896;28;20048;-63
2023/05/31 05:41:39;;;;;;;1.85;0.70;;;;;;;18.12;71.24;101976.41;5013433;28;20123;-63
2023/05/31 05:44:05;;;;;;;2.03;0.90;;;;;;;18.31;71.60;101978.19;5033151;28;20072;-63
2023/05/31 05:46:31;;;;;;;1.95;0.80;;;;;;;18.58;71.46;101976.91;5007625;28;20045;-63
2023/05/31 05:48:57;;;;;;;1.05;0.80;;;;;;;18.69;70.60;101978.56;5029064;28;20032;-63
2023/05/31 05:51:23;;;;;;;2.00;0.90;;;;;;;18.93;70.45;101979.91;5030348;28;20027;-64
2023/05/31 05:53:49;;;;;;;1.35;0.75;;;;;;;19.13;68.91;101980.44;5032671;28;20025;-62
2023/05/31 05:56:18;;;;;;;1.40;1.17;;;;;;;19.20;69.86;101975.06;5026410;28;20029;-63
2023/05/31 05:58:54;;;;;;;1.15;0.93;;;;;;;19.38;70.23;101984.16;5038124;28;20033;-65
2023/05/31 06:01:35;;;;;;;2.27;0.90;;;;;;;19.49;68.98;101976.81;5040122;28;20072;-65
2023/05/31 06:04:01;;;;;;;1.08;0.80;;;;;;;19.48;68.72;101977.97;5032926;28;20029;-64
2023/05/31 06:06:26;;;;;;;2.85;1.10;;;;;;;19.62;69.77;101967.91;5013674;28;20033;-64
2023/05/31 06:08:53;;;;;;;1.13;0.70;;;;;;;19.72;69.95;101964.41;5017002;28;20048;-64
2023/05/31 06:11:18;;;;;;;0.93;0.57;;;;;;;20.00;68.92;101961.00;5037332;28;20037;-65
2023/05/31 06:13:44;;;;;;;1.10;0.77;;;;;;;20.08;68.88;101970.00;5025556;28;20066;-66
2023/05/31 06:16:13;;;;;;;1.10;0.80;;;;;;;20.16;69.30;101966.91;5045655;28;20025;-64
2023/05/31 06:18:39;;;;;;;1.05;0.50;;;;;;;20.17;69.25;101964.97;5044762;28;20032;-64
2023/05/31 06:21:04;;;;;;;3.70;0.60;;;;;;;20.23;67.84;101961.47;5028759;28;20097;-65
2023/05/31 06:23:31;;;;;;;4.18;1.15;;;;;;;20.57;64.93;101959.19;5028992;28;20016;-65
2023/05/31 06:25:57;;;;;;;5.18;0.65;;;;;;;20.15;64.59;101945.41;5024025;28;20033;-65
2023/05/31 06:28:22;;;;;;;1.23;0.90;;;;;;;20.22;65.73;101954.44;5023573;28;20039;-66
2023/05/31 06:30:52;;;;;;;1.17;0.80;;;;;;;19.55;68.23;101947.97;5034668;28;20064;-68
2023/05/31 06:33:17;;;;;;;0.30;0.30;;;;;;;19.79;67.45;101942.59;5016295;28;20030;-65
2023/05/31 06:35:46;;;;;;;4.18;1.05;;;;;;;19.71;68.75;101945.66;5042803;28;20021;-66
2023/05/31 06:38:16;;;;;;;1.13;0.70;;;;;;;19.88;65.83;101938.72;5024988;28;20421;-65
2023/05/31 06:40:43;;;;;;;0.95;0.80;;;;;;;20.04;65.37;101944.59;5031408;28;20039;-66
2023/05/31 06:43:10;;;;;;;1.40;0.80;;;;;;;20.34;63.10;101943.13;5030799;28;20016;-65
2023/05/31 06:45:58;;;;;;;0.73;0.40;;;;;;;20.32;60.46;101944.69;5035818;28;20045;-67
2023/05/31 06:48:42;;;;;;;0.10;0.10;;;;;;;20.41;60.59;101932.19;5040479;28;20055;-65
2023/05/31 06:51:26;;;;;;;1.15;0.50;;;;;;;20.65;57.97;101931.41;5031828;28;20044;-66
2023/05/31 06:54:11;;;;;;;0.80;0.40;;;;;;;20.92;57.31;101931.78;5058135;28;20169;-65
2023/05/31 06:56:37;;;;;;;1.90;0.75;;;;;;;21.25;56.84;101934.06;5034945;28;20044;-66
2023/05/31 06:59:02;;;;;;;1.13;0.47;;;;;;;21.55;57.19;101934.38;5036032;28;20393;-66
2023/05/31 07:01:28;;;;;;;0.80;0.60;;;;;;;21.80;55.40;101930.72;5046004;28;20036;-66
2023/05/31 07:03:54;;;;;;;2.25;0.52;;;;;;;21.21;54.10;101933.31;5031937;28;20020;-65
2023/05/31 07:06:19;;;;;;;0.80;0.68;;;;;;;21.32;55.18;101928.59;5034577;28;20021;-66
2023/05/31 07:08:46;;;;;;;0.50;0.43;;;;;;;21.55;55.81;101922.63;5033993;28;20035;-66
2023/05/31 07:11:32;;;;;;;1.15;0.50;;;;;;;21.76;55.30;101930.75;5057124;28;20037;-67
2023/05/31 07:14:01;;;;;;;0.40;0.22;;;;;;;21.93;55.27;101929.91;5032782;28;20029;-65
2023/05/31 07:16:28;;;;;;;0.65;0.50;;;;;;;22.01;55.19;101925.94;5043696;28;20497;-64
2023/05/31 07:18:55;;;;;;;0.50;0.40;;;;;;;22.19;52.73;101934.84;5025446;28;20032;-66
2023/05/31 07:21:22;;;;;;;0.30;0.30;;;;;;;22.30;53.19;101946.53;5029484;28;20144;-67
2023/05/31 07:23:48;;;;;;;0.68;0.35;;;;;;;22.41;51.09;101938.97;5034454;28;20532;-66
2023/05/31 07:26:15;;;;;;;1.02;0.52;;;;;;;22.58;49.28;101933.78;5058405;28;20070;-66
2023/05/31 07:28:42;;;;;;;0.52;0.20;;;;;;;22.58;49.08;101942.81;5047369;28;20037;-66
2023/05/31 07:31:07;;;;;;;0.77;0.30;;;;;;;22.66;47.77;101933.34;5039894;28;20163;-66
2023/05/31 07:33:33;;;;;;;0.35;0.30;;;;;;;22.97;47.26;101936.97;5054888;28;20116;-66
2023/05/31 07:36:01;;;;;;;0.30;0.30;;;;;;;23.06;47.99;101935.31;5045286;28;20043;-66
2023/05/31 07:38:27;;;;;;;0.40;0.30;;;;;;;23.18;48.07;101937.53;5039752;28;20052;-66
2023/05/31 07:40:53;;;;;;;2.53;0.40;;;;;;;23.27;46.77;101926.81;5055185;28;20298;-65
2023/05/31 07:43:21;;;;;;;0.20;0.20;;;;;;;23.31;46.99;101924.06;5044001;28;20041;-65
2023/05/31 07:45:48;;;;;;;0.73;0.40;;;;;;;23.49;46.79;101932.09;5046726;28;20121;-67
2023/05/31 07:48:13;;;;;;;0.20;0.20;;;;;;;23.63;47.09;101926.44;5029258;28;20031;-66
2023/05/31 07:50:39;;;;;;;0.88;0.20;;;;;;;23.66;47.22;101929.13;5055316;28;20135;-66
2023/05/31 07:53:04;;;;;;;0.40;0.30;;;;;;;23.64;46.67;101928.75;5051212;28;20719;-66
2023/05/31 07:55:30;;;;;;;2.65;0.25;;;;;;;23.65;46.94;101926.81;5041277;28;20040;-66
2023/05/31 07:57:55;;;;;;;1.17;0.30;;;;;;;23.66;47.17;101925.59;5043229;28;20043;-67
2023/05/31 08:00:21;;;;;;;0.77;0.30;;;;;;;23.71;48.26;101930.66;5050601;28;20807;-67
2023/05/31 08:02:46;;;;;;;0.17;0.10;;;;;;;23.75;47.88;101934.91;5044272;28;20021;-66
2023/05/31 08:05:13;;;;;;;0.40;0.20;;;;;;;23.95;48.29;101924.81;5051523;28;20111;-67
2023/05/31 08:07:38;;;;;;;0.77;0.32;;;;;;;24.02;47.69;101930.22;5029691;28;20047;-65
2023/05/31 08:10:04;;;;;;;0.70;0.30;;;;;;;24.03;47.27;101931.00;5046062;28;20014;-66
2023/05/31 08:12:30;;;;;;;1.08;0.30;;;;;;;24.23;47.56;101931.13;5053864;28;20035;-66
2023/05/31 08:14:56;;;;;;;0.93;0.55;;;;;;;24.39;46.37;101923.75;5052457;28;20111;-67
2023/05/31 08:17:21;;;;;;;0.45;0.40;;;;;;;24.42;45.98;101916.66;5050612;28;20643;-65
2023/05/31 08:19:47;;;;;;;1.20;0.30;;;;;;;24.56;45.98;101924.69;5041844;28;20115;-67
2023/05/31 08:22:12;;;;;;;1.65;0.30;;;;;;;24.79;46.13;101922.72;5040802;28;20501;-66
2023/05/31 08:24:38;;;;;;;1.58;0.20;;;;;;;24.76;45.61;101926.31;5037727;28;20040;-66
2023/05/31 08:27:03;;;;;;;0.60;0.40;;;;;;;24.99;45.22;101923.53;5049675;28;20025;-65
2023/05/31 08:29:30;;;;;;;1.08;0.47;;;;;;;24.89;45.16;101913.47;5047156;28;20474;-66
2023/05/31 08:31:55;;;;;;;0.63;0.40;;;;;;;24.87;45.72;101913.09;5045024;28;20048;-66
2023/05/31 08:34:23;;;;;;;1.15;0.47;;;;;;;25.07;46.13;101910.38;5046349;28;20042;-66
2023/05/31 08:36:48;;;;;;;2.10;0.90;;;;;;;25.15;45.74;101916.53;5031068;28;20033;-65
2023/05/31 08:39:14;;;;;;;0.55;0.22;;;;;;;25.22;45.87;101916.41;5023273;28;20083;-65
2023/05/31 08:41:52;;;;;;;1.10;0.40;;;;;;;25.24;44.52;101905.75;5044618;28;20049;-65
2023/05/31 08:44:19;;;;;;;1.42;0.63;;;;;;;25.40;44.71;101906.59;5046922;28;20037;-65
2023/05/31 08:46:48;;;;;;;5.35;0.60;;;;;;;25.56;45.18;101903.13;5050472;28;20029;-66
2023/05/31 08:49:15;;;;;;;1.10;0.57;;;;;;;25.65;44.02;101903.31;5046582;28;20056;-67
2023/05/31 08:51:43;;;;;;;0.88;0.40;;;;;;;25.73;42.96;101905.50;5023939;28;20169;-66
2023/05/31 08:54:10;;;;;;;0.90;0.32;;;;;;;25.70;42.22;101909.13;5048008;28;20837;-65
2023/05/31 08:56:37;;;;;;;0.22;0.20;;;;;;;25.76;41.81;101903.88;5047003;28;20041;-66
2023/05/31 08:59:03;;;;;;;0.77;0.40;;;;;;;25.97;42.06;101899.84;5032831;28;20037;-66
2023/05/31 09:01:30;;;;;;;1.10;0.35;;;;;;;26.08;42.05;101900.38;5032816;28;20041;-66
2023/05/31 09:03:56;;;;;;;0.90;0.40;;;;;;;26.13;41.99;101899.91;5045615;28;20052;-67
2023/05/31 09:06:21;;;;;;;2.45;0.52;;;;;;;26.40;42.11;101909.47;5045832;28;21014;-65
2023/05/31 09:08:48;;;;;;;0.93;0.55;;;;;;;26.35;41.59;101893.41;5044208;28;20029;-65
2023/05/31 09:11:14;;;;;;;1.13;0.70;;;;;;;26.52;41.81;101899.69;5027811;28;20033;-65
2023/05/31 09:13:40;;;;;;;0.60;0.30;;;;;;;26.40;42.13;101895.63;5024728;28;20033;-65
2023/05/31 09:16:05;;;;;;;0.73;0.57;;;;;;;26.48;41.52;101894.25;5050072;28;20024;-65
2023/05/31 09:18:41;;;;;;;1.65;0.57;;;;;;;26.62;40.92;101898.66;5033332;28;20098;-65
2023/05/31 09:21:11;;;;;;;1.00;0.40;;;;;;;26.79;40.21;101892.69;5049464;28;20116;-66
2023/05/31 09:23:37;;;;;;;1.30;0.45;;;;;;;26.53;40.73;101885.47;5024549;28;20129;-65
2023/05/31 09:26:06;;;;;;;0.35;0.20;;;;;;;26.73;41.44;101886.13;5012844;28;20486;-66
2023/05/31 09:28:32;;;;;;;1.55;0.73;;;;;;;26.83;41.93;101875.22;5041045;28;20117;-65
2023/05/31 09:31:05;;;;;;;0.40;0.30;;;;;;;26.93;41.00;101869.38;5042099;28;20540;-65
2023/05/31 09:33:42;;;;;;;0.70;0.38;;;;;;;27.09;40.82;101879.63;5047839;28;20465;-66
2023/05/31 09:36:08;;;;;;;0.30;0.25;;;;;;;27.42;40.97;101867.22;5027898;28;20120;-65
2023/05/31 09:38:37;;;;;;;3.63;0.73;;;;;;;27.58;38.17;101869.91;5038299;28;20420;-65
2023/05/31 09:41:12;;;;;;;0.40;0.32;;;;;;;27.74;39.62;101864.25;5037820;28;20037;-65
2023/05/31 09:43:39;;;;;;;2.47;0.50;;;;;;;27.64;39.77;101866.13;5040652;28;20044;-66
2023/05/31 09:46:11;;;;;;;1.75;0.20;;;;;;;27.77;39.17;101859.81;5042601;28;20025;-66
2023/05/31 09:48:36;;;;;;;0.52;0.30;;;;;;;27.94;39.05;101861.25;5044943;28;20052;-66
2023/05/31 09:51:05;;;;;;;0.90;0.40;;;;;;;28.02;39.46;101860.63;5042289;28;20126;-66
2023/05/31 09:53:30;;;;;;;0.70;0.47;;;;;;;28.04;39.56;101852.63;5048380;28;20037;-65
2023/05/31 09:55:57;;;;;;;1.15;0.40;;;;;;;28.11;38.38;101851.59;5029665;28;20044;-65
2023/05/31 09:58:32;;;;;;;1.05;0.50;;;;;;;28.16;38.13;101851.06;5007763;28;20029;-66
2023/05/31 10:01:00;;;;;;;0.20;0.20;;;;;;;28.39;37.70;101851.47;5037586;28;20518;-65
2023/05/31 10:03:28;;;;;;;0.90;0.50;;;;;;;28.38;37.45;101855.44;5021251;28;20082;-66
2023/05/31 10:05:53;;;;;;;0.40;0.22;;;;;;;28.26;37.16;101856.25;5042225;28;20036;-65
2023/05/31 10:08:22;;;;;;;0.80;0.30;;;;;;;28.50;37.95;101848.31;5034432;28;20029;-65
2023/05/31 10:10:47;;;;;;;0.40;0.40;;;;;;;28.62;38.04;101844.75;5043697;28;20029;-65
2023/05/31 10:13:16;;;;;;;0.50;0.40;;;;;;;28.61;37.66;101845.19;5049525;28;20040;-65
2023/05/31 10:15:45;;;;;;;1.60;0.47;;;;;;;28.74;38.17;101846.69;5047122;28;20068;-66
2023/05/31 10:18:14;;;;;;;0.10;0.10;;;;;;;28.94;38.18;101838.06;5049513;28;20033;-65
2023/05/31 10:20:49;;;;;;;2.03;0.57;;;;;;;29.03;37.86;101846.44;5050080;28;20501;-66
2023/05/31 10:23:21;;;;;;;0.30;0.20;;;;;;;29.25;36.95;101841.66;5040554;28;20031;-65
2023/05/31 10:26:17;;;;;;;0.30;0.17;;;;;;;29.13;36.54;101850.84;5032982;28;20040;-66
2023/05/31 10:29:07;;;;;;;0.65;0.30;;;;;;;29.36;37.30;101842.03;5024254;28;20116;-66
2023/05/31 10:31:43;;;;;;;0.28;0.28;;;;;;;29.18;36.60;101848.25;5036689;28;20072;-66
2023/05/31 10:34:23;;;;;;;0.28;0.17;;;;;;;29.35;37.29;101848.81;5043323;28;20039;-66
2023/05/31 10:36:51;;;;;;;0.52;0.38;;;;;;;29.42;36.38;101840.97;5034822;28;20496;-65
2023/05/31 10:39:23;;;;;;;0.65;0.30;;;;;;;29.40;36.10;101848.22;5042675;28;20174;-66
2023/05/31 10:41:58;;;;;;;0.90;0.40;;;;;;;29.42;36.27;101834.66;5032679;28;20040;-66
2023/05/31 10:44:33;;;;;;;0.20;0.20;;;;;;;29.45;37.31;101828.19;5043554;28;20489;-65
2023/05/31 10:47:07;;;;;;;3.50;0.10;;;;;;;29.60;36.18;101829.16;5037274;28;20043;-65
2023/05/31 10:49:36;;;;;;;0.17;0.17;;;;;;;29.89;36.53;101824.03;5028256;28;20032;-66
2023/05/31 10:52:25;;;;;;;0.30;0.10;;;;;;;29.97;35.27;101827.28;5048723;28;20029;-66
2023/05/31 10:54:50;;;;;;;0.10;0.10;;;;;;;30.04;35.70;101819.44;4970250;28;20118;-66
2023/05/31 10:57:16;;;;;;;0.60;0.45;;;;;;;30.16;35.54;101824.09;4986354;28;20144;-65
2023/05/31 10:59:45;;;;;;;0.45;0.35;;;;;;;30.22;35.48;101813.91;4988045;28;20043;-66
2023/05/31 11:02:11;;;;;;;1.15;0.40;;;;;;;30.18;36.41;101815.28;4988125;28;20058;-65
2023/05/31 11:04:37;;;;;;;0.30;0.20;;;;;;;30.29;35.32;101812.88;4988015;28;20133;-66
2023/05/31 11:07:17;;;;;;;0.30;0.30;;;;;;;30.39;35.64;101810.88;4966449;28;20125;-65
2023/05/31 11:09:56;;;;;;;0.38;0.20;;;;;;;30.25;34.86;101803.88;4954483;28;20034;-66
2023/05/31 11:12:32;;;;;;;0.70;0.30;;;;;;;30.41;34.40;101800.06;4981152;28;20084;-66
2023/05/31 11:15:04;;;;;;;0.15;0.10;;;;;;;30.59;34.88;101805.59;4954406;28;20069;-66
2023/05/31 11:17:41;;;;;;;0.30;0.17;;;;;;;30.85;34.40;101804.06;4979469;28;20097;-65
2023/05/31 11:20:07;;;;;;;0.98;0.40;;;;;;;30.77;33.40;101805.56;4986249;28;20054;-66
2023/05/31 11:22:32;;;;;;;0.52;0.13;;;;;;;30.24;33.72;101800.31;5005602;22;20050;-66
2023/05/31 11:25:01;;;;;;;1.60;0.45;;;;;;;30.44;33.92;101796.31;5012961;28;20036;-67
2023/05/31 11:27:39;;;;;;;0.35;0.20;;;;;;;30.53;33.88;101799.88;5013319;28;20036;-66
2023/05/31 11:30:15;;;;;;;0.32;0.22;;;;;;;30.72;33.79;101792.31;5014574;28;20025;-67
2023/05/31 11:32:42;;;;;;;0.70;0.35;;;;;;;30.83;34.10;101787.03;5019224;28;20091;-66